createdAt,value
2023-05-12T00:02:14.137Z,71.72
2023-05-12T00:04:40.935Z,71.83
2023-05-12T00:07:07.676Z,71.83
2023-05-12T00:09:34.558Z,71.62
2023-05-12T00:12:02.080Z,71.81
2023-05-12T00:14:28.734Z,71.93
2023-05-12T00:16:55.381Z,72.13
2023-05-12T00:19:22.186Z,72.56
2023-05-12T00:21:48.771Z,72.75
2023-05-12T00:24:15.328Z,73.10
2023-05-12T00:26:42.112Z,73.29
2023-05-12T00:29:08.766Z,73.61
2023-05-12T00:31:35.520Z,74.00
2023-05-12T00:34:02.249Z,74.30
2023-05-12T00:36:28.967Z,74.40
2023-05-12T00:38:55.529Z,74.64
2023-05-12T00:41:22.355Z,74.77
2023-05-12T00:43:49.052Z,75.22
2023-05-12T00:46:15.978Z,75.56
2023-05-12T00:48:43.452Z,75.73
2023-05-12T00:51:10.417Z,75.75
2023-05-12T00:53:48.276Z,75.99
2023-05-12T00:56:19.047Z,75.97
2023-05-12T00:58:46.821Z,76.08
2023-05-12T01:01:14.948Z,75.75
2023-05-12T01:03:42.223Z,75.75
2023-05-12T01:06:39.109Z,72.96
2023-05-12T01:09:07.856Z,75.71
2023-05-12T01:11:34.609Z,75.51
2023-05-12T01:14:01.369Z,75.69
2023-05-12T01:16:33.153Z,74.96
2023-05-12T01:19:04.034Z,75.47
2023-05-12T01:21:31.057Z,75.93
2023-05-12T01:24:06.206Z,74.60
2023-05-12T01:26:33.181Z,75.85
2023-05-12T01:29:01.322Z,73.90
2023-05-12T01:31:29.248Z,75.69
2023-05-12T01:33:56.483Z,74.22
2023-05-12T01:36:24.286Z,75.69
2023-05-12T01:38:51.608Z,75.44
2023-05-12T01:41:18.322Z,75.64
2023-05-12T01:43:44.975Z,75.51
2023-05-12T01:46:12.692Z,75.23
2023-05-12T01:48:41.073Z,74.85
2023-05-12T01:51:08.733Z,74.75
2023-05-12T01:53:36.282Z,74.87
2023-05-12T01:56:02.975Z,75.00
2023-05-12T01:58:31.569Z,75.10
2023-05-12T02:00:59.360Z,74.98
2023-05-12T02:03:27.020Z,74.89
2023-05-12T02:05:57.054Z,74.54
2023-05-12T02:08:24.150Z,74.52
2023-05-12T02:10:51.007Z,74.41
2023-05-12T02:13:17.638Z,74.55
2023-05-12T02:15:44.379Z,74.38
2023-05-12T02:18:11.113Z,74.50
2023-05-12T02:20:39.164Z,72.93
2023-05-12T02:23:05.969Z,74.66
2023-05-12T02:25:33.602Z,74.30
2023-05-12T02:28:00.371Z,74.15
2023-05-12T02:30:27.181Z,74.11
2023-05-12T02:32:53.906Z,74.42
2023-05-12T02:35:20.631Z,74.38
2023-05-12T02:37:47.879Z,74.62
2023-05-12T02:40:15.935Z,74.12
2023-05-12T02:42:42.642Z,74.17
2023-05-12T02:45:10.228Z,74.03
2023-05-12T02:47:37.258Z,74.06
2023-05-12T02:50:05.090Z,73.88
2023-05-12T02:52:32.244Z,73.94
2023-05-12T02:54:58.996Z,73.80
2023-05-12T02:57:25.643Z,74.04
2023-05-12T02:59:52.379Z,74.39
2023-05-12T03:02:19.147Z,74.73
2023-05-12T03:04:45.776Z,75.10
2023-05-12T03:07:12.722Z,75.16
2023-05-12T03:09:39.486Z,75.19
2023-05-12T03:12:06.543Z,75.32
2023-05-12T03:14:33.174Z,75.61
2023-05-12T03:16:59.983Z,75.17
2023-05-12T03:19:26.576Z,75.02
2023-05-12T03:21:53.932Z,75.02
2023-05-12T03:24:20.694Z,75.12
2023-05-12T03:26:47.369Z,75.00
2023-05-12T03:29:14.343Z,75.18
2023-05-12T03:31:41.178Z,75.36
2023-05-12T03:34:07.902Z,75.36
2023-05-12T03:36:34.660Z,75.03
2023-05-12T03:39:01.759Z,74.66
2023-05-12T03:41:28.419Z,74.95
2023-05-12T03:43:55.083Z,75.36
2023-05-12T03:46:21.746Z,75.54
2023-05-12T03:48:48.622Z,75.45
2023-05-12T03:51:15.463Z,75.47
2023-05-12T03:53:42.124Z,75.32
2023-05-12T03:56:08.908Z,75.21
2023-05-12T03:58:35.527Z,75.24
2023-05-12T04:01:02.543Z,75.23
2023-05-12T04:03:29.924Z,75.24
2023-05-12T04:06:03.494Z,73.93
2023-05-12T04:08:30.559Z,75.52
2023-05-12T04:10:58.320Z,75.60
2023-05-12T04:13:25.730Z,75.61
2023-05-12T04:15:55.502Z,74.66
2023-05-12T04:18:22.948Z,75.63
2023-05-12T04:20:49.716Z,75.45
2023-05-12T04:23:16.468Z,75.53
2023-05-12T04:25:43.327Z,75.54
2023-05-12T04:28:12.060Z,75.53
2023-05-12T04:30:40.649Z,75.50
2023-05-12T04:33:07.352Z,75.51
2023-05-12T04:35:34.289Z,75.67
2023-05-12T04:38:01.650Z,75.67
2023-05-12T04:40:28.462Z,75.67
2023-05-12T04:42:55.410Z,75.18
2023-05-12T04:45:22.337Z,75.58
2023-05-12T04:47:49.242Z,75.79
2023-05-12T04:50:15.909Z,76.04
2023-05-12T04:52:42.522Z,75.77
2023-05-12T04:55:09.518Z,75.79
2023-05-12T04:57:36.160Z,75.49
2023-05-12T05:00:04.432Z,75.89
2023-05-12T05:02:31.842Z,76.01
2023-05-12T05:04:58.830Z,76.17
2023-05-12T05:07:28.371Z,76.49
2023-05-12T05:09:55.361Z,76.65
2023-05-12T05:12:22.056Z,76.51
2023-05-12T05:14:48.847Z,76.76
2023-05-12T05:17:15.748Z,77.12
2023-05-12T05:19:55.117Z,77.21
2023-05-12T05:22:25.529Z,77.60
2023-05-12T05:24:52.268Z,77.96
2023-05-12T05:27:19.230Z,77.90
2023-05-12T05:29:46.008Z,78.19
2023-05-12T05:32:12.676Z,78.27
2023-05-12T05:34:39.632Z,78.01
2023-05-12T05:37:06.393Z,77.36
2023-05-12T05:39:33.292Z,76.46
2023-05-12T05:42:00.215Z,76.42
2023-05-12T05:44:26.900Z,76.14
2023-05-12T05:46:54.721Z,76.24
2023-05-12T05:49:23.412Z,76.35
2023-05-12T05:51:50.708Z,76.47
2023-05-12T05:54:17.739Z,75.96
2023-05-12T05:56:45.334Z,76.46
2023-05-12T05:59:11.975Z,76.59
2023-05-12T06:01:38.866Z,75.70
2023-05-12T06:04:05.790Z,76.37
2023-05-12T06:06:32.513Z,76.73
2023-05-12T06:09:00.109Z,76.23
2023-05-12T06:11:27.209Z,75.06
2023-05-12T06:13:53.814Z,75.74
2023-05-12T06:16:20.548Z,75.40
2023-05-12T06:18:47.321Z,74.81
2023-05-12T06:21:13.909Z,74.53
2023-05-12T06:23:40.570Z,74.39
2023-05-12T06:26:07.137Z,74.11
2023-05-12T06:28:33.960Z,74.52
2023-05-12T06:31:00.689Z,75.17
2023-05-12T06:33:27.273Z,75.78
2023-05-12T06:35:53.975Z,74.68
2023-05-12T06:38:20.640Z,74.79
2023-05-12T06:40:47.577Z,75.03
2023-05-12T06:43:14.226Z,74.22
2023-05-12T06:45:44.592Z,73.91
2023-05-12T06:48:11.456Z,72.97
2023-05-12T06:50:38.227Z,73.67
2023-05-12T06:53:04.884Z,74.26
2023-05-12T06:55:31.542Z,74.66
2023-05-12T06:57:58.306Z,74.48
2023-05-12T07:00:26.089Z,74.54
2023-05-12T07:02:53.081Z,74.76
2023-05-12T07:05:20.268Z,74.52
2023-05-12T07:07:47.012Z,74.20
2023-05-12T07:10:13.765Z,74.17
2023-05-12T07:12:41.677Z,73.98
2023-05-12T07:15:08.848Z,73.93
2023-05-12T07:17:35.617Z,72.97
2023-05-12T07:20:02.355Z,72.65
2023-05-12T07:22:29.148Z,73.24
2023-05-12T07:24:56.033Z,72.74
2023-05-12T07:27:22.833Z,72.22
2023-05-12T07:29:49.455Z,72.60
2023-05-12T07:32:16.018Z,72.85
2023-05-12T07:34:42.720Z,70.43
2023-05-12T07:37:09.299Z,69.74
2023-05-12T07:39:36.054Z,69.86
2023-05-12T07:42:02.782Z,70.22
2023-05-12T07:44:29.776Z,69.30
2023-05-12T07:46:56.505Z,69.42
2023-05-12T07:49:23.181Z,69.77
2023-05-12T07:51:49.798Z,69.96
2023-05-12T07:54:16.581Z,69.11
2023-05-12T07:56:43.278Z,67.94
2023-05-12T07:59:09.872Z,67.38
2023-05-12T08:01:36.452Z,65.63
2023-05-12T08:04:03.273Z,65.11
2023-05-12T08:06:30.006Z,65.16
2023-05-12T08:08:56.582Z,65.22
2023-05-12T08:11:23.877Z,66.23
2023-05-12T08:13:50.491Z,67.44
2023-05-12T08:16:17.220Z,68.34
2023-05-12T08:18:44.146Z,68.71
2023-05-12T08:21:11.020Z,62.48
2023-05-12T08:23:37.730Z,64.96
2023-05-12T08:26:04.918Z,64.23
2023-05-12T08:28:31.647Z,64.76
2023-05-12T08:30:58.881Z,65.26
2023-05-12T08:33:25.609Z,66.13
2023-05-12T08:35:52.396Z,64.16
2023-05-12T08:38:19.190Z,62.70
2023-05-12T08:41:16.282Z,63.92
2023-05-12T08:43:51.531Z,61.79
2023-05-12T08:46:18.723Z,64.48
2023-05-12T08:48:46.755Z,65.46
2023-05-12T08:51:14.006Z,64.27
2023-05-12T08:53:41.950Z,65.66
2023-05-12T08:58:42.102Z,64.98
2023-05-12T09:01:11.867Z,63.97
2023-05-12T09:03:38.898Z,65.53
2023-05-12T09:06:06.727Z,64.36
2023-05-12T09:08:33.726Z,63.60
2023-05-12T09:11:01.094Z,63.24
2023-05-12T09:13:52.621Z,59.82
2023-05-12T09:16:24.894Z,59.67
2023-05-12T09:18:54.541Z,63.45
2023-05-12T09:21:21.886Z,63.95
2023-05-12T09:23:57.743Z,60.51
2023-05-12T09:26:26.596Z,63.93
2023-05-12T09:28:54.809Z,64.62
2023-05-12T09:31:24.022Z,64.70
2023-05-12T09:33:52.225Z,64.07
2023-05-12T09:36:22.724Z,64.41
2023-05-12T09:38:59.947Z,63.69
2023-05-12T09:41:26.673Z,63.13
2023-05-12T09:43:53.410Z,62.33
2023-05-12T09:46:20.180Z,57.21
2023-05-12T09:48:49.415Z,58.91
2023-05-12T09:51:17.492Z,60.02
2023-05-12T09:53:44.165Z,62.06
2023-05-12T09:56:13.132Z,57.25
2023-05-12T09:58:44.873Z,59.19
2023-05-12T10:01:22.528Z,55.93
2023-05-12T10:03:55.676Z,54.90
2023-05-12T10:06:27.832Z,57.37
2023-05-12T10:09:00.061Z,56.41
2023-05-12T10:11:29.264Z,57.66
2023-05-12T10:13:57.308Z,59.74
2023-05-12T10:16:24.405Z,61.12
2023-05-12T10:18:51.573Z,61.67
2023-05-12T10:21:19.111Z,62.58
2023-05-12T10:23:46.789Z,62.99
2023-05-12T10:26:14.443Z,63.19
2023-05-12T10:28:41.427Z,63.99
2023-05-12T10:34:30.550Z,62.67
2023-05-12T10:36:58.345Z,63.05
2023-05-12T10:39:29.585Z,60.93
2023-05-12T10:42:06.841Z,62.65
2023-05-12T10:44:33.526Z,64.32
2023-05-12T10:47:00.179Z,63.13
2023-05-12T10:49:34.572Z,60.67
2023-05-12T10:52:01.198Z,63.52
2023-05-12T10:54:27.857Z,63.57
2023-05-12T10:56:59.575Z,60.13
2023-05-12T10:59:26.969Z,63.40
2023-05-12T11:02:16.840Z,61.10
2023-05-12T11:04:52.808Z,60.40
2023-05-12T11:07:24.133Z,64.05
2023-05-12T11:09:58.504Z,63.83
2023-05-12T11:12:33.204Z,62.90
2023-05-12T11:15:01.679Z,64.22
2023-05-12T11:17:28.782Z,64.58
2023-05-12T11:19:55.609Z,65.41
2023-05-12T11:22:23.748Z,65.01
2023-05-12T11:24:50.962Z,62.68
2023-05-12T11:27:19.112Z,65.62
2023-05-12T11:29:55.205Z,65.65
2023-05-12T11:32:21.810Z,64.15
2023-05-12T11:34:48.391Z,63.34
2023-05-12T11:37:14.986Z,63.38
2023-05-12T11:39:41.674Z,63.01
2023-05-12T11:42:12.691Z,63.09
2023-05-12T11:44:47.687Z,61.23
2023-05-12T11:47:15.427Z,64.40
2023-05-12T11:49:50.362Z,62.09
2023-05-12T11:52:18.288Z,53.75
2023-05-12T11:54:48.512Z,52.73
2023-05-12T11:57:25.639Z,54.11
2023-05-12T12:00:06.017Z,52.64
2023-05-12T12:02:33.146Z,55.83
2023-05-12T12:05:00.037Z,56.46
2023-05-12T12:07:30.942Z,54.80
2023-05-12T12:09:57.694Z,54.71
2023-05-12T12:12:24.645Z,54.98
2023-05-12T12:14:51.189Z,54.50
2023-05-12T12:17:17.736Z,52.81
2023-05-12T12:19:44.398Z,54.34
2023-05-12T12:22:10.961Z,56.99
2023-05-12T12:24:37.536Z,58.00
2023-05-12T12:27:04.445Z,56.05
2023-05-12T12:29:31.086Z,57.32
2023-05-12T12:31:57.610Z,58.25
2023-05-12T12:34:24.322Z,58.49
2023-05-12T12:36:51.765Z,58.47
2023-05-12T12:39:19.917Z,59.51
2023-05-12T12:41:47.173Z,59.63
2023-05-12T12:44:13.898Z,60.27
2023-05-12T12:46:40.533Z,60.03
2023-05-12T12:49:07.424Z,59.65
2023-05-12T12:51:44.958Z,59.43
2023-05-12T12:54:12.646Z,59.91
2023-05-12T12:56:39.276Z,60.43
2023-05-12T12:59:05.946Z,60.66
2023-05-12T13:01:33.660Z,59.57
2023-05-12T13:04:00.337Z,60.29
2023-05-12T13:06:27.035Z,60.13
2023-05-12T13:08:53.636Z,59.11
2023-05-12T13:11:20.238Z,59.03
2023-05-12T13:13:47.078Z,57.53
2023-05-12T13:16:13.857Z,56.20
2023-05-12T13:18:40.637Z,56.41
2023-05-12T13:21:07.235Z,57.74
2023-05-12T13:23:33.875Z,58.17
2023-05-12T13:26:00.441Z,57.36
2023-05-12T13:28:27.020Z,53.29
2023-05-12T13:30:53.800Z,52.69
2023-05-12T13:33:20.580Z,54.02
2023-05-12T13:35:47.277Z,54.07
2023-05-12T13:38:13.875Z,53.89
2023-05-12T13:40:40.510Z,54.54
2023-05-12T13:43:07.141Z,56.44
2023-05-12T13:45:33.787Z,55.10
2023-05-12T13:48:00.481Z,55.91
2023-05-12T13:50:27.129Z,56.57
2023-05-12T13:52:53.698Z,53.56
2023-05-12T13:55:21.682Z,52.33
2023-05-12T13:57:49.123Z,54.24
2023-05-12T14:00:15.972Z,54.28
2023-05-12T14:02:45.547Z,53.90
2023-05-12T14:05:12.233Z,54.60
2023-05-12T14:07:38.844Z,54.00
2023-05-12T14:10:05.930Z,54.97
2023-05-12T14:12:32.572Z,54.85
2023-05-12T14:15:04.721Z,55.78
2023-05-12T14:17:45.897Z,56.89
2023-05-12T14:20:12.768Z,57.41
2023-05-12T14:22:39.387Z,57.41
2023-05-12T14:25:06.428Z,57.71
2023-05-12T14:27:33.136Z,57.58
2023-05-12T14:29:59.747Z,58.00
2023-05-12T14:32:26.568Z,58.80
2023-05-12T14:34:53.216Z,59.59
2023-05-12T14:37:19.795Z,59.50
2023-05-12T14:39:46.447Z,59.52
2023-05-12T14:42:13.088Z,60.32
2023-05-12T14:44:39.756Z,60.35
2023-05-12T14:47:08.246Z,61.04
2023-05-12T14:49:35.728Z,61.38
2023-05-12T14:52:02.844Z,61.67
2023-05-12T14:54:29.556Z,62.29
2023-05-12T14:56:56.141Z,61.76
2023-05-12T14:59:22.892Z,61.37
2023-05-12T15:01:49.547Z,60.36
2023-05-12T15:04:16.200Z,60.35
2023-05-12T15:06:42.906Z,59.28
2023-05-12T15:09:09.544Z,59.17
2023-05-12T15:11:36.158Z,59.33
2023-05-12T15:14:02.738Z,58.91
2023-05-12T15:16:31.638Z,59.04
2023-05-12T15:18:58.303Z,60.07
2023-05-12T15:21:24.995Z,61.02
2023-05-12T15:23:51.602Z,59.64
2023-05-12T15:26:32.071Z,58.27
2023-05-12T15:29:00.119Z,58.46
2023-05-12T15:31:29.641Z,59.12
2023-05-12T15:33:57.211Z,59.82
2023-05-12T15:36:24.887Z,59.40
2023-05-12T15:38:51.550Z,60.32
2023-05-12T15:41:18.233Z,61.22
2023-05-12T15:43:44.824Z,60.27
2023-05-12T15:46:11.906Z,60.35
2023-05-12T15:48:39.147Z,59.82
2023-05-12T15:51:06.007Z,60.54
2023-05-12T15:53:32.728Z,59.89
2023-05-12T15:56:04.543Z,59.87
2023-05-12T15:58:31.832Z,59.58
2023-05-12T16:00:58.955Z,60.20
2023-05-12T16:03:26.008Z,60.67
2023-05-12T16:05:52.853Z,60.87
2023-05-12T16:08:19.431Z,59.92
2023-05-12T16:10:46.066Z,60.25
2023-05-12T16:13:12.629Z,61.31
2023-05-12T16:15:39.223Z,60.90
2023-05-12T16:18:08.387Z,61.61
2023-05-12T16:20:36.965Z,61.88
2023-05-12T16:23:03.828Z,62.36
2023-05-12T16:25:30.483Z,62.19
2023-05-12T16:27:57.425Z,61.92
2023-05-12T16:30:24.278Z,62.04
2023-05-12T16:32:50.978Z,60.43
2023-05-12T16:35:17.704Z,60.53
2023-05-12T16:37:44.386Z,60.52
2023-05-12T16:40:11.181Z,60.90
2023-05-12T16:42:38.027Z,61.17
2023-05-12T16:45:04.997Z,61.31
2023-05-12T16:47:31.563Z,60.73
2023-05-12T16:49:58.424Z,59.55
2023-05-12T16:52:25.954Z,60.37
2023-05-12T16:54:52.701Z,61.28
2023-05-12T16:57:19.799Z,61.05
2023-05-12T16:59:46.872Z,61.09
2023-05-12T17:02:13.548Z,61.63
2023-05-12T17:04:40.174Z,59.74
2023-05-12T17:07:06.869Z,60.02
2023-05-12T17:09:33.617Z,60.02
2023-05-12T17:12:00.174Z,60.55
2023-05-12T17:14:26.797Z,60.80
2023-05-12T17:16:53.403Z,60.96
2023-05-12T17:19:20.243Z,60.93
2023-05-12T17:21:46.952Z,61.27
2023-05-12T17:24:13.630Z,61.12
2023-05-12T17:26:40.214Z,60.80
2023-05-12T17:29:06.946Z,61.34
2023-05-12T17:31:33.871Z,61.48
2023-05-12T17:34:00.482Z,61.39
2023-05-12T17:36:27.093Z,61.84
2023-05-12T17:38:53.752Z,62.44
2023-05-12T17:41:20.506Z,62.91
2023-05-12T17:43:47.063Z,62.92
2023-05-12T17:46:13.880Z,63.58
2023-05-12T17:48:40.580Z,63.67
2023-05-12T17:51:07.391Z,62.77
2023-05-12T17:53:34.533Z,62.68
2023-05-12T17:56:01.148Z,62.78
2023-05-12T17:58:27.720Z,62.77
2023-05-12T18:00:54.507Z,62.45
2023-05-12T18:03:21.185Z,63.21
2023-05-12T18:05:47.808Z,63.65
2023-05-12T18:08:14.407Z,64.12
2023-05-12T18:10:41.068Z,64.47
2023-05-12T18:13:07.778Z,64.54
2023-05-12T18:15:34.406Z,64.79
2023-05-12T18:18:01.179Z,64.80
2023-05-12T18:20:27.860Z,65.15
2023-05-12T18:22:54.816Z,64.36
2023-05-12T18:25:21.570Z,63.92
2023-05-12T18:27:48.372Z,64.25
2023-05-12T18:30:15.147Z,63.69
2023-05-12T18:32:41.815Z,64.31
2023-05-12T18:35:08.891Z,64.53
2023-05-12T18:37:35.488Z,64.60
2023-05-12T18:40:02.161Z,64.65
2023-05-12T18:42:28.831Z,64.76
2023-05-12T18:44:55.664Z,65.03
2023-05-12T18:47:22.416Z,65.56
2023-05-12T18:49:49.029Z,65.14
2023-05-12T18:52:15.607Z,65.51
2023-05-12T18:54:42.244Z,65.60
2023-05-12T18:57:08.852Z,65.42
2023-05-12T18:59:35.507Z,65.24
2023-05-12T19:02:02.370Z,64.57
2023-05-12T19:04:29.117Z,64.61
2023-05-12T19:06:55.731Z,64.56
2023-05-12T19:09:22.345Z,64.56
2023-05-12T19:11:48.915Z,64.90
2023-05-12T19:14:15.499Z,64.94
2023-05-12T19:16:42.223Z,64.59
2023-05-12T19:19:08.923Z,65.23
2023-05-12T19:21:35.565Z,65.58
2023-05-12T19:24:02.202Z,65.81
2023-05-12T19:26:29.258Z,65.64
2023-05-12T19:28:58.720Z,65.89
2023-05-12T19:31:25.332Z,65.68
2023-05-12T19:33:52.286Z,65.35
2023-05-12T19:36:18.979Z,64.89
2023-05-12T19:38:45.587Z,65.04
2023-05-12T19:41:12.248Z,64.67
2023-05-12T19:43:38.860Z,64.66
2023-05-12T19:46:05.545Z,64.90
2023-05-12T19:48:32.257Z,65.20
2023-05-12T19:50:58.879Z,64.51
2023-05-12T19:53:25.442Z,64.87
2023-05-12T19:55:52.149Z,65.25
2023-05-12T19:58:18.739Z,65.03
2023-05-12T20:00:52.875Z,64.73
2023-05-12T20:03:19.639Z,64.37
2023-05-12T20:05:48.436Z,63.80
2023-05-12T20:08:15.725Z,63.42
2023-05-12T20:10:42.527Z,64.03
2023-05-12T20:13:09.232Z,64.35
2023-05-12T20:15:35.999Z,64.59
2023-05-12T20:18:02.812Z,64.74
2023-05-12T20:20:29.488Z,65.49
2023-05-12T20:22:56.144Z,65.08
2023-05-12T20:25:23.022Z,65.26
2023-05-12T20:27:49.809Z,65.34
2023-05-12T20:30:16.428Z,65.45
2023-05-12T20:32:43.289Z,65.53
2023-05-12T20:35:09.938Z,65.61
2023-05-12T20:37:36.572Z,65.76
2023-05-12T20:40:03.354Z,65.82
2023-05-12T20:42:29.925Z,66.12
2023-05-12T20:44:56.578Z,65.92
2023-05-12T20:47:23.270Z,66.10
2023-05-12T20:49:54.939Z,65.26
2023-05-12T20:52:21.583Z,66.41
2023-05-12T20:54:48.309Z,66.35
2023-05-12T20:57:14.896Z,66.53
2023-05-12T20:59:41.528Z,66.63
2023-05-12T21:02:08.288Z,66.27
2023-05-12T21:04:34.941Z,65.80
2023-05-12T21:07:01.611Z,65.99
2023-05-12T21:09:28.186Z,66.19
2023-05-12T21:11:54.827Z,66.26
2023-05-12T21:14:21.444Z,65.48
2023-05-12T21:16:48.040Z,65.89
2023-05-12T21:19:14.685Z,66.43
2023-05-12T21:21:41.338Z,66.76
2023-05-12T21:24:08.067Z,66.09
2023-05-12T21:26:34.666Z,66.13
2023-05-12T21:29:01.272Z,66.13
2023-05-12T21:31:27.955Z,65.96
2023-05-12T21:33:54.624Z,66.26
2023-05-12T21:36:21.266Z,66.45
2023-05-12T21:38:47.850Z,66.23
2023-05-12T21:41:14.532Z,66.02
2023-05-12T21:43:41.091Z,65.91
2023-05-12T21:46:07.842Z,65.55
2023-05-12T21:48:34.565Z,65.36
2023-05-12T21:51:02.692Z,65.87
2023-05-12T21:53:29.347Z,65.67
2023-05-12T21:55:56.033Z,65.99
2023-05-12T21:58:22.700Z,65.93
2023-05-12T22:00:52.673Z,64.96
2023-05-12T22:03:20.037Z,64.71
2023-05-12T22:05:46.803Z,64.96
2023-05-12T22:08:13.367Z,65.57
2023-05-12T22:10:40.099Z,65.74
2023-05-12T22:13:06.672Z,65.54
2023-05-12T22:15:33.549Z,65.13
2023-05-12T22:18:00.243Z,64.42
2023-05-12T22:20:27.360Z,64.71
2023-05-12T22:22:53.951Z,64.84
2023-05-12T22:25:20.680Z,65.36
2023-05-12T22:27:47.270Z,65.85
2023-05-12T22:30:14.244Z,65.74
2023-05-12T22:32:40.884Z,66.03
2023-05-12T22:35:09.082Z,65.70
2023-05-12T22:37:35.681Z,65.67
2023-05-12T22:40:02.531Z,66.05
2023-05-12T22:42:29.260Z,65.33
2023-05-12T22:44:55.805Z,65.73
2023-05-12T22:47:22.431Z,66.11
2023-05-12T22:49:49.198Z,66.15
2023-05-12T22:52:15.847Z,66.67
2023-05-12T22:54:42.551Z,66.50
2023-05-12T22:57:09.274Z,66.46
2023-05-12T22:59:35.919Z,66.80
2023-05-12T23:02:02.586Z,66.79
2023-05-12T23:04:29.307Z,66.46
2023-05-12T23:06:55.898Z,66.20
2023-05-12T23:09:22.522Z,66.48
2023-05-12T23:11:49.120Z,66.15
2023-05-12T23:14:15.793Z,66.03
2023-05-12T23:16:42.514Z,65.80
2023-05-12T23:19:09.359Z,66.04
2023-05-12T23:21:36.050Z,66.41
2023-05-12T23:24:02.660Z,66.63
2023-05-12T23:26:29.311Z,65.74
2023-05-12T23:28:55.994Z,66.07
2023-05-12T23:31:22.716Z,66.16
2023-05-12T23:33:49.536Z,65.92
2023-05-12T23:36:16.128Z,65.64
2023-05-12T23:38:42.845Z,65.34
2023-05-12T23:41:09.484Z,65.42
2023-05-12T23:43:39.122Z,65.59
2023-05-12T23:46:05.926Z,65.07
2023-05-12T23:48:32.628Z,65.08
2023-05-12T23:50:59.289Z,65.61
2023-05-12T23:53:25.871Z,66.33
2023-05-12T23:55:52.499Z,66.12
2023-05-12T23:58:19.224Z,66.50
